sensor_id;sensor_type;location;lat;lon;timestamp;P1;durP1;ratioP1;P2;durP2;ratioP2
15712;SDS011;7957;51.608;6.916;2023-07-30T00:01:59;3.37;;;2.60;;
15712;SDS011;7957;51.608;6.916;2023-07-30T00:04:26;2.87;;;2.57;;
15712;SDS011;7957;51.608;6.916;2023-07-30T00:06:53;3.10;;;2.80;;
15712;SDS011;7957;51.608;6.916;2023-07-30T00:09:20;4.03;;;2.47;;
15712;SDS011;7957;51.608;6.916;2023-07-30T00:11:48;4.67;;;2.80;;
15712;SDS011;7957;51.608;6.916;2023-07-30T00:14:15;3.90;;;2.93;;
15712;SDS011;7957;51.608;6.916;2023-07-30T00:16:42;3.37;;;2.70;;
15712;SDS011;7957;51.608;6.916;2023-07-30T00:19:09;4.07;;;2.57;;
15712;SDS011;7957;51.608;6.916;2023-07-30T00:21:36;3.67;;;2.83;;
15712;SDS011;7957;51.608;6.916;2023-07-30T00:24:03;4.43;;;3.00;;
15712;SDS011;7957;51.608;6.916;2023-07-30T00:26:30;3.80;;;2.80;;
15712;SDS011;7957;51.608;6.916;2023-07-30T00:28:59;3.90;;;2.67;;
15712;SDS011;7957;51.608;6.916;2023-07-30T00:31:26;3.80;;;2.70;;
15712;SDS011;7957;51.608;6.916;2023-07-30T00:33:53;3.33;;;2.77;;
15712;SDS011;7957;51.608;6.916;2023-07-30T00:36:19;5.57;;;3.23;;
15712;SDS011;7957;51.608;6.916;2023-07-30T00:38:46;3.60;;;3.13;;
15712;SDS011;7957;51.608;6.916;2023-07-30T00:41:13;3.93;;;2.83;;
15712;SDS011;7957;51.608;6.916;2023-07-30T00:43:41;4.13;;;2.60;;
15712;SDS011;7957;51.608;6.916;2023-07-30T00:46:09;5.20;;;2.97;;
15712;SDS011;7957;51.608;6.916;2023-07-30T00:48:36;3.33;;;3.03;;
15712;SDS011;7957;51.608;6.916;2023-07-30T00:51:03;3.20;;;2.90;;
15712;SDS011;7957;51.608;6.916;2023-07-30T00:53:30;4.80;;;2.83;;
15712;SDS011;7957;51.608;6.916;2023-07-30T00:55:57;3.67;;;3.00;;
15712;SDS011;7957;51.608;6.916;2023-07-30T00:58:24;4.00;;;2.70;;
15712;SDS011;7957;51.608;6.916;2023-07-30T01:00:53;5.27;;;2.77;;
15712;SDS011;7957;51.608;6.916;2023-07-30T01:03:22;3.43;;;2.77;;
15712;SDS011;7957;51.608;6.916;2023-07-30T01:05:49;4.80;;;3.20;;
15712;SDS011;7957;51.608;6.916;2023-07-30T01:08:16;3.10;;;2.80;;
15712;SDS011;7957;51.608;6.916;2023-07-30T01:10:43;4.83;;;2.70;;
15712;SDS011;7957;51.608;6.916;2023-07-30T01:13:11;3.97;;;2.60;;
15712;SDS011;7957;51.608;6.916;2023-07-30T01:15:40;6.03;;;3.10;;
15712;SDS011;7957;51.608;6.916;2023-07-30T01:18:08;2.97;;;2.67;;
15712;SDS011;7957;51.608;6.916;2023-07-30T01:20:37;4.43;;;3.00;;
15712;SDS011;7957;51.608;6.916;2023-07-30T01:23:05;4.93;;;3.10;;
15712;SDS011;7957;51.608;6.916;2023-07-30T01:25:33;6.60;;;3.07;;
15712;SDS011;7957;51.608;6.916;2023-07-30T01:28:03;5.30;;;3.40;;
15712;SDS011;7957;51.608;6.916;2023-07-30T01:30:34;5.13;;;3.20;;
15712;SDS011;7957;51.608;6.916;2023-07-30T01:33:05;3.37;;;2.77;;
15712;SDS011;7957;51.608;6.916;2023-07-30T01:35:32;5.07;;;3.20;;
15712;SDS011;7957;51.608;6.916;2023-07-30T01:38:02;4.93;;;3.20;;
15712;SDS011;7957;51.608;6.916;2023-07-30T01:40:32;3.77;;;2.97;;
15712;SDS011;7957;51.608;6.916;2023-07-30T01:42:59;3.50;;;2.87;;
15712;SDS011;7957;51.608;6.916;2023-07-30T01:45:27;4.00;;;3.00;;
15712;SDS011;7957;51.608;6.916;2023-07-30T01:47:54;5.30;;;2.90;;
15712;SDS011;7957;51.608;6.916;2023-07-30T01:50:20;5.23;;;3.10;;
15712;SDS011;7957;51.608;6.916;2023-07-30T01:52:47;5.10;;;3.07;;
15712;SDS011;7957;51.608;6.916;2023-07-30T01:55:14;4.40;;;3.40;;
15712;SDS011;7957;51.608;6.916;2023-07-30T01:57:43;3.63;;;2.90;;
15712;SDS011;7957;51.608;6.916;2023-07-30T02:00:10;4.43;;;3.03;;
15712;SDS011;7957;51.608;6.916;2023-07-30T02:02:38;4.03;;;2.90;;
15712;SDS011;7957;51.608;6.916;2023-07-30T02:05:05;4.20;;;2.70;;
15712;SDS011;7957;51.608;6.916;2023-07-30T02:07:32;4.50;;;3.33;;
15712;SDS011;7957;51.608;6.916;2023-07-30T02:09:59;4.80;;;3.30;;
15712;SDS011;7957;51.608;6.916;2023-07-30T02:12:26;5.00;;;3.10;;
15712;SDS011;7957;51.608;6.916;2023-07-30T02:14:54;3.30;;;2.63;;
15712;SDS011;7957;51.608;6.916;2023-07-30T02:17:21;3.50;;;2.90;;
15712;SDS011;7957;51.608;6.916;2023-07-30T02:19:48;3.87;;;2.83;;
15712;SDS011;7957;51.608;6.916;2023-07-30T02:22:15;3.57;;;3.00;;
15712;SDS011;7957;51.608;6.916;2023-07-30T02:24:42;5.47;;;3.00;;
15712;SDS011;7957;51.608;6.916;2023-07-30T02:27:09;5.50;;;3.40;;
15712;SDS011;7957;51.608;6.916;2023-07-30T02:29:36;5.40;;;3.10;;
15712;SDS011;7957;51.608;6.916;2023-07-30T02:32:06;3.90;;;2.90;;
15712;SDS011;7957;51.608;6.916;2023-07-30T02:34:33;6.97;;;3.30;;
15712;SDS011;7957;51.608;6.916;2023-07-30T02:37:00;5.70;;;3.20;;
15712;SDS011;7957;51.608;6.916;2023-07-30T02:39:27;5.90;;;3.23;;
15712;SDS011;7957;51.608;6.916;2023-07-30T02:41:53;4.10;;;3.13;;
15712;SDS011;7957;51.608;6.916;2023-07-30T02:44:20;3.90;;;2.93;;
15712;SDS011;7957;51.608;6.916;2023-07-30T02:46:47;5.03;;;3.30;;
15712;SDS011;7957;51.608;6.916;2023-07-30T02:49:15;5.17;;;3.00;;
15712;SDS011;7957;51.608;6.916;2023-07-30T02:51:42;4.00;;;3.10;;
15712;SDS011;7957;51.608;6.916;2023-07-30T02:54:13;4.77;;;3.30;;
15712;SDS011;7957;51.608;6.916;2023-07-30T02:56:42;5.37;;;3.10;;
15712;SDS011;7957;51.608;6.916;2023-07-30T02:59:10;3.67;;;3.00;;
15712;SDS011;7957;51.608;6.916;2023-07-30T03:01:37;4.70;;;3.00;;
15712;SDS011;7957;51.608;6.916;2023-07-30T03:04:04;5.83;;;3.07;;
15712;SDS011;7957;51.608;6.916;2023-07-30T03:06:33;4.10;;;3.00;;
15712;SDS011;7957;51.608;6.916;2023-07-30T03:09:00;4.97;;;3.23;;
15712;SDS011;7957;51.608;6.916;2023-07-30T03:11:27;5.60;;;3.47;;
15712;SDS011;7957;51.608;6.916;2023-07-30T03:13:55;4.60;;;3.33;;
15712;SDS011;7957;51.608;6.916;2023-07-30T03:16:22;5.40;;;3.40;;
15712;SDS011;7957;51.608;6.916;2023-07-30T03:18:48;5.20;;;3.20;;
15712;SDS011;7957;51.608;6.916;2023-07-30T03:21:15;3.90;;;3.03;;
15712;SDS011;7957;51.608;6.916;2023-07-30T03:23:44;4.27;;;2.90;;
15712;SDS011;7957;51.608;6.916;2023-07-30T03:26:13;5.87;;;3.50;;
15712;SDS011;7957;51.608;6.916;2023-07-30T03:28:40;5.60;;;3.33;;
15712;SDS011;7957;51.608;6.916;2023-07-30T03:31:07;4.17;;;2.97;;
15712;SDS011;7957;51.608;6.916;2023-07-30T03:33:33;5.23;;;2.97;;
15712;SDS011;7957;51.608;6.916;2023-07-30T03:36:00;4.77;;;3.30;;
15712;SDS011;7957;51.608;6.916;2023-07-30T03:38:27;3.73;;;2.93;;
15712;SDS011;7957;51.608;6.916;2023-07-30T03:40:56;6.30;;;3.63;;
15712;SDS011;7957;51.608;6.916;2023-07-30T03:43:24;5.80;;;3.40;;
15712;SDS011;7957;51.608;6.916;2023-07-30T03:45:51;3.87;;;3.10;;
15712;SDS011;7957;51.608;6.916;2023-07-30T03:48:17;5.37;;;3.10;;
15712;SDS011;7957;51.608;6.916;2023-07-30T03:50:44;6.90;;;3.17;;
15712;SDS011;7957;51.608;6.916;2023-07-30T03:53:12;6.30;;;3.50;;
15712;SDS011;7957;51.608;6.916;2023-07-30T03:55:39;6.43;;;3.20;;
15712;SDS011;7957;51.608;6.916;2023-07-30T03:58:08;4.33;;;3.23;;
15712;SDS011;7957;51.608;6.916;2023-07-30T04:00:35;5.03;;;3.10;;
15712;SDS011;7957;51.608;6.916;2023-07-30T04:03:02;4.67;;;3.17;;
15712;SDS011;7957;51.608;6.916;2023-07-30T04:05:29;5.73;;;3.60;;
15712;SDS011;7957;51.608;6.916;2023-07-30T04:07:56;5.47;;;3.40;;
15712;SDS011;7957;51.608;6.916;2023-07-30T04:10:23;4.83;;;3.20;;
15712;SDS011;7957;51.608;6.916;2023-07-30T04:12:50;5.10;;;3.27;;
15712;SDS011;7957;51.608;6.916;2023-07-30T04:15:19;5.40;;;3.30;;
15712;SDS011;7957;51.608;6.916;2023-07-30T04:17:46;6.67;;;3.40;;
15712;SDS011;7957;51.608;6.916;2023-07-30T04:20:12;6.90;;;3.53;;
15712;SDS011;7957;51.608;6.916;2023-07-30T04:22:39;6.67;;;3.67;;
15712;SDS011;7957;51.608;6.916;2023-07-30T04:25:07;6.73;;;3.57;;
15712;SDS011;7957;51.608;6.916;2023-07-30T04:27:35;7.20;;;3.40;;
15712;SDS011;7957;51.608;6.916;2023-07-30T04:30:02;6.27;;;3.60;;
15712;SDS011;7957;51.608;6.916;2023-07-30T04:32:31;5.90;;;3.33;;
15712;SDS011;7957;51.608;6.916;2023-07-30T04:34:58;5.90;;;3.43;;
15712;SDS011;7957;51.608;6.916;2023-07-30T04:37:25;8.17;;;3.80;;
15712;SDS011;7957;51.608;6.916;2023-07-30T04:39:52;9.33;;;3.70;;
15712;SDS011;7957;51.608;6.916;2023-07-30T04:42:19;8.07;;;3.67;;
15712;SDS011;7957;51.608;6.916;2023-07-30T04:44:46;7.17;;;3.53;;
15712;SDS011;7957;51.608;6.916;2023-07-30T04:47:13;7.47;;;3.70;;
15712;SDS011;7957;51.608;6.916;2023-07-30T04:49:41;6.30;;;4.03;;
15712;SDS011;7957;51.608;6.916;2023-07-30T04:52:08;7.13;;;4.13;;
15712;SDS011;7957;51.608;6.916;2023-07-30T04:54:36;6.67;;;3.77;;
15712;SDS011;7957;51.608;6.916;2023-07-30T04:57:02;6.40;;;3.90;;
15712;SDS011;7957;51.608;6.916;2023-07-30T04:59:30;5.70;;;4.03;;
15712;SDS011;7957;51.608;6.916;2023-07-30T05:01:58;7.80;;;4.00;;
15712;SDS011;7957;51.608;6.916;2023-07-30T05:04:25;8.17;;;4.37;;
15712;SDS011;7957;51.608;6.916;2023-07-30T05:06:53;8.37;;;3.93;;
15712;SDS011;7957;51.608;6.916;2023-07-30T05:09:21;7.13;;;3.77;;
15712;SDS011;7957;51.608;6.916;2023-07-30T05:11:47;7.60;;;4.40;;
15712;SDS011;7957;51.608;6.916;2023-07-30T05:14:14;9.17;;;4.47;;
15712;SDS011;7957;51.608;6.916;2023-07-30T05:16:41;7.23;;;4.10;;
15712;SDS011;7957;51.608;6.916;2023-07-30T05:19:08;7.93;;;4.60;;
15712;SDS011;7957;51.608;6.916;2023-07-30T05:21:35;7.47;;;4.40;;
15712;SDS011;7957;51.608;6.916;2023-07-30T05:24:04;9.17;;;4.63;;
15712;SDS011;7957;51.608;6.916;2023-07-30T05:26:31;10.77;;;4.50;;
15712;SDS011;7957;51.608;6.916;2023-07-30T05:28:57;6.97;;;4.23;;
15712;SDS011;7957;51.608;6.916;2023-07-30T05:31:24;8.33;;;4.77;;
15712;SDS011;7957;51.608;6.916;2023-07-30T05:33:52;7.03;;;4.33;;
15712;SDS011;7957;51.608;6.916;2023-07-30T05:36:19;8.33;;;4.80;;
15712;SDS011;7957;51.608;6.916;2023-07-30T05:38:46;11.30;;;4.73;;
15712;SDS011;7957;51.608;6.916;2023-07-30T05:41:14;8.80;;;4.70;;
15712;SDS011;7957;51.608;6.916;2023-07-30T05:43:42;9.37;;;4.90;;
15712;SDS011;7957;51.608;6.916;2023-07-30T05:46:09;10.13;;;5.10;;
15712;SDS011;7957;51.608;6.916;2023-07-30T05:48:36;10.13;;;5.07;;
15712;SDS011;7957;51.608;6.916;2023-07-30T05:51:03;7.57;;;4.90;;
15712;SDS011;7957;51.608;6.916;2023-07-30T05:53:30;9.57;;;5.13;;
15712;SDS011;7957;51.608;6.916;2023-07-30T05:55:57;9.87;;;5.53;;
15712;SDS011;7957;51.608;6.916;2023-07-30T05:58:25;9.30;;;5.00;;
15712;SDS011;7957;51.608;6.916;2023-07-30T06:00:52;7.23;;;4.83;;
15712;SDS011;7957;51.608;6.916;2023-07-30T06:03:19;11.73;;;5.83;;
15712;SDS011;7957;51.608;6.916;2023-07-30T06:05:46;9.80;;;5.03;;
15712;SDS011;7957;51.608;6.916;2023-07-30T06:08:12;9.50;;;4.80;;
15712;SDS011;7957;51.608;6.916;2023-07-30T06:10:39;9.80;;;5.73;;
15712;SDS011;7957;51.608;6.916;2023-07-30T06:13:06;10.17;;;5.60;;
15712;SDS011;7957;51.608;6.916;2023-07-30T06:15:34;11.67;;;5.93;;
15712;SDS011;7957;51.608;6.916;2023-07-30T06:18:01;8.43;;;5.30;;
15712;SDS011;7957;51.608;6.916;2023-07-30T06:20:28;10.00;;;5.43;;
15712;SDS011;7957;51.608;6.916;2023-07-30T06:22:56;11.97;;;6.03;;
15712;SDS011;7957;51.608;6.916;2023-07-30T06:25:23;9.57;;;5.87;;
15712;SDS011;7957;51.608;6.916;2023-07-30T06:27:50;11.17;;;6.40;;
15712;SDS011;7957;51.608;6.916;2023-07-30T06:30:17;10.50;;;5.97;;
15712;SDS011;7957;51.608;6.916;2023-07-30T06:32:46;12.67;;;7.07;;
15712;SDS011;7957;51.608;6.916;2023-07-30T06:35:13;10.90;;;6.37;;
15712;SDS011;7957;51.608;6.916;2023-07-30T06:37:40;14.23;;;6.47;;
15712;SDS011;7957;51.608;6.916;2023-07-30T06:40:07;10.90;;;6.67;;
15712;SDS011;7957;51.608;6.916;2023-07-30T06:42:34;11.03;;;6.47;;
15712;SDS011;7957;51.608;6.916;2023-07-30T06:45:01;13.13;;;7.37;;
15712;SDS011;7957;51.608;6.916;2023-07-30T06:47:29;11.10;;;6.60;;
15712;SDS011;7957;51.608;6.916;2023-07-30T06:49:57;11.70;;;6.87;;
15712;SDS011;7957;51.608;6.916;2023-07-30T06:52:24;10.70;;;7.07;;
15712;SDS011;7957;51.608;6.916;2023-07-30T06:54:51;11.73;;;6.97;;
15712;SDS011;7957;51.608;6.916;2023-07-30T06:57:18;12.27;;;6.83;;
15712;SDS011;7957;51.608;6.916;2023-07-30T06:59:45;14.17;;;7.27;;
15712;SDS011;7957;51.608;6.916;2023-07-30T07:02:11;12.67;;;7.03;;
15712;SDS011;7957;51.608;6.916;2023-07-30T07:04:38;13.37;;;6.77;;
15712;SDS011;7957;51.608;6.916;2023-07-30T07:07:06;12.37;;;6.40;;
15712;SDS011;7957;51.608;6.916;2023-07-30T07:09:34;12.53;;;6.67;;
15712;SDS011;7957;51.608;6.916;2023-07-30T07:12:01;12.47;;;6.23;;
15712;SDS011;7957;51.608;6.916;2023-07-30T07:14:29;10.73;;;6.00;;
15712;SDS011;7957;51.608;6.916;2023-07-30T07:16:55;10.00;;;6.23;;
15712;SDS011;7957;51.608;6.916;2023-07-30T07:19:22;9.40;;;6.03;;
15712;SDS011;7957;51.608;6.916;2023-07-30T07:21:49;12.50;;;6.17;;
15712;SDS011;7957;51.608;6.916;2023-07-30T07:24:19;14.40;;;6.23;;
15712;SDS011;7957;51.608;6.916;2023-07-30T07:26:45;12.37;;;5.90;;
15712;SDS011;7957;51.608;6.916;2023-07-30T07:29:12;9.77;;;5.40;;
15712;SDS011;7957;51.608;6.916;2023-07-30T07:31:39;9.50;;;5.07;;
15712;SDS011;7957;51.608;6.916;2023-07-30T07:34:06;11.40;;;5.67;;
15712;SDS011;7957;51.608;6.916;2023-07-30T07:36:34;10.30;;;5.73;;
15712;SDS011;7957;51.608;6.916;2023-07-30T07:39:03;9.00;;;5.23;;
15712;SDS011;7957;51.608;6.916;2023-07-30T07:41:31;11.27;;;5.47;;
15712;SDS011;7957;51.608;6.916;2023-07-30T07:43:58;8.70;;;4.97;;
15712;SDS011;7957;51.608;6.916;2023-07-30T07:46:25;9.47;;;5.20;;
15712;SDS011;7957;51.608;6.916;2023-07-30T07:48:52;10.73;;;5.20;;
15712;SDS011;7957;51.608;6.916;2023-07-30T07:51:19;10.50;;;4.93;;
15712;SDS011;7957;51.608;6.916;2023-07-30T07:53:46;12.87;;;5.23;;
15712;SDS011;7957;51.608;6.916;2023-07-30T07:56:13;9.50;;;5.07;;
15712;SDS011;7957;51.608;6.916;2023-07-30T07:58:41;9.20;;;5.00;;
15712;SDS011;7957;51.608;6.916;2023-07-30T08:01:08;7.97;;;4.33;;
15712;SDS011;7957;51.608;6.916;2023-07-30T08:03:35;7.33;;;4.13;;
15712;SDS011;7957;51.608;6.916;2023-07-30T08:06:02;8.83;;;4.30;;
15712;SDS011;7957;51.608;6.916;2023-07-30T08:08:29;8.63;;;4.30;;
15712;SDS011;7957;51.608;6.916;2023-07-30T08:10:56;7.93;;;4.40;;
15712;SDS011;7957;51.608;6.916;2023-07-30T08:13:23;9.93;;;4.37;;
15712;SDS011;7957;51.608;6.916;2023-07-30T08:15:51;9.40;;;4.63;;
15712;SDS011;7957;51.608;6.916;2023-07-30T08:18:18;9.00;;;4.50;;
15712;SDS011;7957;51.608;6.916;2023-07-30T08:20:45;10.83;;;4.20;;
15712;SDS011;7957;51.608;6.916;2023-07-30T08:23:12;10.53;;;4.83;;
15712;SDS011;7957;51.608;6.916;2023-07-30T08:25:39;8.70;;;4.53;;
15712;SDS011;7957;51.608;6.916;2023-07-30T08:28:05;8.73;;;4.40;;
15712;SDS011;7957;51.608;6.916;2023-07-30T08:30:32;9.83;;;4.90;;
15712;SDS011;7957;51.608;6.916;2023-07-30T08:33:01;9.07;;;4.33;;
15712;SDS011;7957;51.608;6.916;2023-07-30T08:35:27;10.43;;;4.57;;
15712;SDS011;7957;51.608;6.916;2023-07-30T08:37:54;7.83;;;3.93;;
15712;SDS011;7957;51.608;6.916;2023-07-30T08:40:21;11.20;;;4.77;;
15712;SDS011;7957;51.608;6.916;2023-07-30T08:42:49;8.40;;;4.70;;
15712;SDS011;7957;51.608;6.916;2023-07-30T08:45:16;11.47;;;4.67;;
15712;SDS011;7957;51.608;6.916;2023-07-30T08:47:44;11.07;;;4.50;;
15712;SDS011;7957;51.608;6.916;2023-07-30T08:50:13;13.30;;;4.87;;
15712;SDS011;7957;51.608;6.916;2023-07-30T08:52:40;10.40;;;4.70;;
15712;SDS011;7957;51.608;6.916;2023-07-30T08:55:07;9.97;;;4.23;;
15712;SDS011;7957;51.608;6.916;2023-07-30T08:57:34;10.63;;;4.57;;
15712;SDS011;7957;51.608;6.916;2023-07-30T09:00:02;9.63;;;4.87;;
15712;SDS011;7957;51.608;6.916;2023-07-30T09:02:34;13.80;;;4.80;;
15712;SDS011;7957;51.608;6.916;2023-07-30T09:05:04;9.83;;;4.10;;
15712;SDS011;7957;51.608;6.916;2023-07-30T09:07:33;9.57;;;4.33;;
15712;SDS011;7957;51.608;6.916;2023-07-30T09:10:00;10.57;;;4.23;;
15712;SDS011;7957;51.608;6.916;2023-07-30T09:12:28;12.03;;;4.30;;
15712;SDS011;7957;51.608;6.916;2023-07-30T09:14:56;11.70;;;4.30;;
15712;SDS011;7957;51.608;6.916;2023-07-30T09:17:23;9.60;;;3.90;;
15712;SDS011;7957;51.608;6.916;2023-07-30T09:19:51;11.23;;;4.50;;
15712;SDS011;7957;51.608;6.916;2023-07-30T09:22:24;12.13;;;4.30;;
15712;SDS011;7957;51.608;6.916;2023-07-30T09:24:53;10.57;;;4.07;;
15712;SDS011;7957;51.608;6.916;2023-07-30T09:27:21;8.73;;;4.03;;
15712;SDS011;7957;51.608;6.916;2023-07-30T09:29:51;10.47;;;4.07;;
15712;SDS011;7957;51.608;6.916;2023-07-30T09:32:18;12.73;;;3.77;;
15712;SDS011;7957;51.608;6.916;2023-07-30T09:34:46;11.87;;;4.63;;
15712;SDS011;7957;51.608;6.916;2023-07-30T09:37:13;10.17;;;3.67;;
15712;SDS011;7957;51.608;6.916;2023-07-30T09:39:41;11.07;;;4.30;;
15712;SDS011;7957;51.608;6.916;2023-07-30T09:42:09;6.03;;;2.97;;
15712;SDS011;7957;51.608;6.916;2023-07-30T09:44:38;9.07;;;3.63;;
15712;SDS011;7957;51.608;6.916;2023-07-30T09:47:08;11.87;;;4.33;;
15712;SDS011;7957;51.608;6.916;2023-07-30T09:49:36;9.37;;;3.93;;
15712;SDS011;7957;51.608;6.916;2023-07-30T09:52:03;8.73;;;3.53;;
15712;SDS011;7957;51.608;6.916;2023-07-30T09:54:31;7.90;;;3.30;;
15712;SDS011;7957;51.608;6.916;2023-07-30T09:56:58;10.03;;;3.50;;
15712;SDS011;7957;51.608;6.916;2023-07-30T09:59:27;9.33;;;3.43;;
15712;SDS011;7957;51.608;6.916;2023-07-30T10:01:54;12.77;;;4.17;;
15712;SDS011;7957;51.608;6.916;2023-07-30T10:04:23;6.93;;;3.13;;
15712;SDS011;7957;51.608;6.916;2023-07-30T10:06:53;6.70;;;3.40;;
15712;SDS011;7957;51.608;6.916;2023-07-30T10:09:25;7.30;;;3.23;;
15712;SDS011;7957;51.608;6.916;2023-07-30T10:11:56;9.40;;;3.50;;
15712;SDS011;7957;51.608;6.916;2023-07-30T10:14:25;9.57;;;3.63;;
15712;SDS011;7957;51.608;6.916;2023-07-30T10:16:54;12.03;;;3.90;;
15712;SDS011;7957;51.608;6.916;2023-07-30T10:19:22;10.30;;;3.93;;
15712;SDS011;7957;51.608;6.916;2023-07-30T10:21:49;7.93;;;3.80;;
15712;SDS011;7957;51.608;6.916;2023-07-30T10:24:17;9.23;;;3.60;;
15712;SDS011;7957;51.608;6.916;2023-07-30T10:26:44;8.93;;;3.37;;
15712;SDS011;7957;51.608;6.916;2023-07-30T10:29:14;9.43;;;3.83;;
15712;SDS011;7957;51.608;6.916;2023-07-30T10:31:43;6.53;;;3.40;;
15712;SDS011;7957;51.608;6.916;2023-07-30T10:34:15;10.60;;;3.97;;
15712;SDS011;7957;51.608;6.916;2023-07-30T10:36:43;10.23;;;3.80;;
15712;SDS011;7957;51.608;6.916;2023-07-30T10:39:11;8.13;;;3.43;;
15712;SDS011;7957;51.608;6.916;2023-07-30T10:41:43;11.37;;;4.13;;
15712;SDS011;7957;51.608;6.916;2023-07-30T10:44:17;6.80;;;3.37;;
15712;SDS011;7957;51.608;6.916;2023-07-30T10:46:47;9.50;;;3.57;;
15712;SDS011;7957;51.608;6.916;2023-07-30T10:49:16;11.73;;;3.23;;
15712;SDS011;7957;51.608;6.916;2023-07-30T10:51:43;9.40;;;3.77;;
15712;SDS011;7957;51.608;6.916;2023-07-30T10:54:09;9.10;;;3.53;;
15712;SDS011;7957;51.608;6.916;2023-07-30T10:56:37;8.23;;;3.10;;
15712;SDS011;7957;51.608;6.916;2023-07-30T10:59:05;7.23;;;3.33;;
15712;SDS011;7957;51.608;6.916;2023-07-30T11:01:36;10.07;;;3.40;;
15712;SDS011;7957;51.608;6.916;2023-07-30T11:04:11;7.00;;;3.13;;
15712;SDS011;7957;51.608;6.916;2023-07-30T11:06:44;8.33;;;3.23;;
15712;SDS011;7957;51.608;6.916;2023-07-30T11:09:17;8.27;;;3.10;;
15712;SDS011;7957;51.608;6.916;2023-07-30T11:11:45;9.63;;;3.33;;
15712;SDS011;7957;51.608;6.916;2023-07-30T11:14:14;8.97;;;3.20;;
15712;SDS011;7957;51.608;6.916;2023-07-30T11:16:46;7.60;;;3.07;;
15712;SDS011;7957;51.608;6.916;2023-07-30T11:19:14;8.33;;;3.30;;
15712;SDS011;7957;51.608;6.916;2023-07-30T11:21:45;7.97;;;2.97;;
15712;SDS011;7957;51.608;6.916;2023-07-30T11:24:12;8.23;;;3.20;;
15712;SDS011;7957;51.608;6.916;2023-07-30T11:26:39;8.33;;;3.27;;
15712;SDS011;7957;51.608;6.916;2023-07-30T11:29:13;9.10;;;3.43;;
15712;SDS011;7957;51.608;6.916;2023-07-30T11:31:41;7.63;;;3.20;;
15712;SDS011;7957;51.608;6.916;2023-07-30T11:34:09;8.90;;;3.50;;
15712;SDS011;7957;51.608;6.916;2023-07-30T11:36:37;10.87;;;3.53;;
15712;SDS011;7957;51.608;6.916;2023-07-30T11:39:06;8.87;;;3.87;;
15712;SDS011;7957;51.608;6.916;2023-07-30T11:41:38;8.87;;;3.03;;
15712;SDS011;7957;51.608;6.916;2023-07-30T11:44:05;9.60;;;3.20;;
15712;SDS011;7957;51.608;6.916;2023-07-30T11:46:32;8.80;;;3.17;;
15712;SDS011;7957;51.608;6.916;2023-07-30T11:49:11;8.17;;;3.30;;
15712;SDS011;7957;51.608;6.916;2023-07-30T11:51:38;4.83;;;2.60;;
15712;SDS011;7957;51.608;6.916;2023-07-30T11:54:17;8.80;;;3.37;;
15712;SDS011;7957;51.608;6.916;2023-07-30T11:56:45;7.67;;;3.13;;
15712;SDS011;7957;51.608;6.916;2023-07-30T11:59:12;8.87;;;3.37;;
15712;SDS011;7957;51.608;6.916;2023-07-30T12:01:38;9.07;;;3.53;;
15712;SDS011;7957;51.608;6.916;2023-07-30T12:04:09;8.80;;;3.13;;
15712;SDS011;7957;51.608;6.916;2023-07-30T12:06:39;6.50;;;2.93;;
15712;SDS011;7957;51.608;6.916;2023-07-30T12:09:12;9.17;;;3.50;;
15712;SDS011;7957;51.608;6.916;2023-07-30T12:11:46;6.87;;;3.20;;
15712;SDS011;7957;51.608;6.916;2023-07-30T12:14:14;7.47;;;3.03;;
15712;SDS011;7957;51.608;6.916;2023-07-30T12:16:41;6.80;;;2.80;;
15712;SDS011;7957;51.608;6.916;2023-07-30T12:19:08;6.43;;;2.70;;
15712;SDS011;7957;51.608;6.916;2023-07-30T12:21:36;5.97;;;2.60;;
15712;SDS011;7957;51.608;6.916;2023-07-30T12:24:02;8.23;;;2.70;;
15712;SDS011;7957;51.608;6.916;2023-07-30T12:26:31;5.33;;;2.30;;
15712;SDS011;7957;51.608;6.916;2023-07-30T12:28:58;5.73;;;2.23;;
15712;SDS011;7957;51.608;6.916;2023-07-30T12:31:24;4.93;;;2.40;;
15712;SDS011;7957;51.608;6.916;2023-07-30T12:33:51;6.40;;;2.43;;
15712;SDS011;7957;51.608;6.916;2023-07-30T12:36:18;4.80;;;2.20;;
15712;SDS011;7957;51.608;6.916;2023-07-30T12:38:45;5.73;;;2.70;;
15712;SDS011;7957;51.608;6.916;2023-07-30T12:41:13;5.40;;;2.23;;
15712;SDS011;7957;51.608;6.916;2023-07-30T12:43:41;6.33;;;2.63;;
15712;SDS011;7957;51.608;6.916;2023-07-30T12:46:08;4.07;;;2.53;;
15712;SDS011;7957;51.608;6.916;2023-07-30T12:48:35;6.43;;;2.00;;
15712;SDS011;7957;51.608;6.916;2023-07-30T12:51:03;4.57;;;2.10;;
15712;SDS011;7957;51.608;6.916;2023-07-30T12:53:30;6.47;;;2.60;;
15712;SDS011;7957;51.608;6.916;2023-07-30T12:55:57;5.97;;;2.10;;
15712;SDS011;7957;51.608;6.916;2023-07-30T12:58:24;4.40;;;2.10;;
15712;SDS011;7957;51.608;6.916;2023-07-30T13:00:52;5.63;;;2.40;;
15712;SDS011;7957;51.608;6.916;2023-07-30T13:03:19;5.40;;;2.40;;
15712;SDS011;7957;51.608;6.916;2023-07-30T13:05:46;7.07;;;2.67;;
15712;SDS011;7957;51.608;6.916;2023-07-30T13:08:12;7.77;;;2.60;;
15712;SDS011;7957;51.608;6.916;2023-07-30T13:10:39;4.53;;;2.30;;
15712;SDS011;7957;51.608;6.916;2023-07-30T13:13:06;5.67;;;2.63;;
15712;SDS011;7957;51.608;6.916;2023-07-30T13:15:33;5.90;;;2.40;;
15712;SDS011;7957;51.608;6.916;2023-07-30T13:18:02;8.73;;;2.77;;
15712;SDS011;7957;51.608;6.916;2023-07-30T13:20:29;5.73;;;2.60;;
15712;SDS011;7957;51.608;6.916;2023-07-30T13:22:57;5.50;;;2.43;;
15712;SDS011;7957;51.608;6.916;2023-07-30T13:25:24;6.77;;;2.97;;
15712;SDS011;7957;51.608;6.916;2023-07-30T13:27:51;6.07;;;2.87;;
15712;SDS011;7957;51.608;6.916;2023-07-30T13:30:18;5.20;;;2.67;;
15712;SDS011;7957;51.608;6.916;2023-07-30T13:32:45;7.33;;;2.70;;
15712;SDS011;7957;51.608;6.916;2023-07-30T13:35:13;7.20;;;3.00;;
15712;SDS011;7957;51.608;6.916;2023-07-30T13:37:40;6.13;;;2.37;;
15712;SDS011;7957;51.608;6.916;2023-07-30T13:40:08;5.30;;;2.43;;
15712;SDS011;7957;51.608;6.916;2023-07-30T13:42:36;6.33;;;2.30;;
15712;SDS011;7957;51.608;6.916;2023-07-30T13:45:03;5.97;;;2.63;;
15712;SDS011;7957;51.608;6.916;2023-07-30T13:47:31;5.37;;;2.40;;
15712;SDS011;7957;51.608;6.916;2023-07-30T13:49:58;4.80;;;2.27;;
15712;SDS011;7957;51.608;6.916;2023-07-30T13:52:26;5.10;;;2.53;;
15712;SDS011;7957;51.608;6.916;2023-07-30T13:54:53;7.47;;;2.87;;
15712;SDS011;7957;51.608;6.916;2023-07-30T13:57:23;3.27;;;2.03;;
15712;SDS011;7957;51.608;6.916;2023-07-30T13:59:50;7.33;;;2.77;;
15712;SDS011;7957;51.608;6.916;2023-07-30T14:02:18;3.70;;;2.13;;
15712;SDS011;7957;51.608;6.916;2023-07-30T14:04:45;6.60;;;2.73;;
15712;SDS011;7957;51.608;6.916;2023-07-30T14:07:12;3.93;;;2.20;;
15712;SDS011;7957;51.608;6.916;2023-07-30T14:09:40;3.97;;;2.07;;
15712;SDS011;7957;51.608;6.916;2023-07-30T14:12:08;5.20;;;2.00;;
15712;SDS011;7957;51.608;6.916;2023-07-30T14:14:35;4.17;;;1.90;;
15712;SDS011;7957;51.608;6.916;2023-07-30T14:17:02;6.00;;;2.23;;
15712;SDS011;7957;51.608;6.916;2023-07-30T14:19:31;7.53;;;2.30;;
15712;SDS011;7957;51.608;6.916;2023-07-30T14:21:59;3.10;;;2.10;;
15712;SDS011;7957;51.608;6.916;2023-07-30T14:24:25;3.63;;;2.10;;
15712;SDS011;7957;51.608;6.916;2023-07-30T14:26:54;3.97;;;2.07;;
15712;SDS011;7957;51.608;6.916;2023-07-30T14:29:21;5.73;;;2.53;;
15712;SDS011;7957;51.608;6.916;2023-07-30T14:31:48;3.90;;;2.00;;
15712;SDS011;7957;51.608;6.916;2023-07-30T14:34:18;4.43;;;2.30;;
15712;SDS011;7957;51.608;6.916;2023-07-30T14:36:45;3.20;;;2.23;;
15712;SDS011;7957;51.608;6.916;2023-07-30T14:39:14;4.67;;;2.17;;
15712;SDS011;7957;51.608;6.916;2023-07-30T14:41:41;5.60;;;2.63;;
15712;SDS011;7957;51.608;6.916;2023-07-30T14:44:10;5.57;;;2.43;;
15712;SDS011;7957;51.608;6.916;2023-07-30T14:46:37;3.87;;;2.20;;
15712;SDS011;7957;51.608;6.916;2023-07-30T14:49:06;5.63;;;2.57;;
15712;SDS011;7957;51.608;6.916;2023-07-30T14:51:33;5.07;;;2.40;;
15712;SDS011;7957;51.608;6.916;2023-07-30T14:54:00;5.03;;;2.37;;
15712;SDS011;7957;51.608;6.916;2023-07-30T14:56:28;7.27;;;2.63;;
15712;SDS011;7957;51.608;6.916;2023-07-30T14:58:55;4.67;;;2.37;;
15712;SDS011;7957;51.608;6.916;2023-07-30T15:01:26;5.73;;;2.60;;